sensor_id;sensor_type;location;lat;lon;timestamp;P1;durP1;ratioP1;P2;durP2;ratioP2
17921;SDS011;9086;50.966;3.144;2022-12-28T00:03:36;8.70;;;6.00;;
17921;SDS011;9086;50.966;3.144;2022-12-28T00:06:02;7.10;;;4.60;;
17921;SDS011;9086;50.966;3.144;2022-12-28T00:08:29;7.20;;;5.00;;
17921;SDS011;9086;50.966;3.144;2022-12-28T00:10:58;7.63;;;5.10;;
17921;SDS011;9086;50.966;3.144;2022-12-28T00:13:25;4.83;;;4.40;;
17921;SDS011;9086;50.966;3.144;2022-12-28T00:15:51;7.30;;;4.47;;
17921;SDS011;9086;50.966;3.144;2022-12-28T00:18:17;9.17;;;5.43;;
17921;SDS011;9086;50.966;3.144;2022-12-28T00:20:43;6.87;;;4.83;;
17921;SDS011;9086;50.966;3.144;2022-12-28T00:23:09;8.17;;;5.33;;
17921;SDS011;9086;50.966;3.144;2022-12-28T00:25:35;6.00;;;5.07;;
17921;SDS011;9086;50.966;3.144;2022-12-28T00:28:01;4.97;;;4.47;;
17921;SDS011;9086;50.966;3.144;2022-12-28T00:30:27;7.13;;;4.57;;
17921;SDS011;9086;50.966;3.144;2022-12-28T00:32:53;7.17;;;5.10;;
17921;SDS011;9086;50.966;3.144;2022-12-28T00:35:19;5.20;;;4.70;;
17921;SDS011;9086;50.966;3.144;2022-12-28T00:37:45;6.40;;;5.60;;
17921;SDS011;9086;50.966;3.144;2022-12-28T00:40:11;9.40;;;5.07;;
17921;SDS011;9086;50.966;3.144;2022-12-28T00:42:37;6.67;;;5.23;;
17921;SDS011;9086;50.966;3.144;2022-12-28T00:45:03;6.70;;;5.23;;
17921;SDS011;9086;50.966;3.144;2022-12-28T00:47:29;5.73;;;4.60;;
17921;SDS011;9086;50.966;3.144;2022-12-28T00:49:55;7.00;;;5.03;;
17921;SDS011;9086;50.966;3.144;2022-12-28T00:52:21;5.47;;;4.33;;
17921;SDS011;9086;50.966;3.144;2022-12-28T00:54:47;5.53;;;4.97;;
17921;SDS011;9086;50.966;3.144;2022-12-28T00:57:13;8.67;;;5.60;;
17921;SDS011;9086;50.966;3.144;2022-12-28T00:59:39;6.10;;;5.50;;
17921;SDS011;9086;50.966;3.144;2022-12-28T01:02:05;9.30;;;5.77;;
17921;SDS011;9086;50.966;3.144;2022-12-28T01:04:31;4.87;;;3.90;;
17921;SDS011;9086;50.966;3.144;2022-12-28T01:06:57;5.00;;;4.50;;
17921;SDS011;9086;50.966;3.144;2022-12-28T01:09:23;6.27;;;4.43;;
17921;SDS011;9086;50.966;3.144;2022-12-28T01:11:49;4.83;;;3.77;;
17921;SDS011;9086;50.966;3.144;2022-12-28T01:14:15;7.20;;;5.40;;
17921;SDS011;9086;50.966;3.144;2022-12-28T01:16:41;6.70;;;5.60;;
17921;SDS011;9086;50.966;3.144;2022-12-28T01:19:09;6.30;;;5.70;;
17921;SDS011;9086;50.966;3.144;2022-12-28T01:21:38;5.70;;;4.97;;
17921;SDS011;9086;50.966;3.144;2022-12-28T01:24:04;6.63;;;5.23;;
17921;SDS011;9086;50.966;3.144;2022-12-28T01:26:32;5.30;;;4.70;;
17921;SDS011;9086;50.966;3.144;2022-12-28T01:28:59;5.17;;;4.60;;
17921;SDS011;9086;50.966;3.144;2022-12-28T01:31:25;5.43;;;4.03;;
17921;SDS011;9086;50.966;3.144;2022-12-28T01:33:51;9.90;;;4.43;;
17921;SDS011;9086;50.966;3.144;2022-12-28T01:38:44;4.50;;;3.97;;
17921;SDS011;9086;50.966;3.144;2022-12-28T01:41:11;6.30;;;5.70;;
17921;SDS011;9086;50.966;3.144;2022-12-28T01:46:07;7.77;;;5.00;;
17921;SDS011;9086;50.966;3.144;2022-12-28T01:48:34;5.07;;;4.27;;
17921;SDS011;9086;50.966;3.144;2022-12-28T01:51:01;4.80;;;4.40;;
17921;SDS011;9086;50.966;3.144;2022-12-28T01:53:27;6.17;;;4.80;;
17921;SDS011;9086;50.966;3.144;2022-12-28T01:55:53;5.80;;;4.40;;
17921;SDS011;9086;50.966;3.144;2022-12-28T01:58:20;7.03;;;4.40;;
17921;SDS011;9086;50.966;3.144;2022-12-28T02:00:48;5.73;;;4.50;;
17921;SDS011;9086;50.966;3.144;2022-12-28T02:03:20;7.07;;;4.47;;
17921;SDS011;9086;50.966;3.144;2022-12-28T02:05:48;7.50;;;5.03;;
17921;SDS011;9086;50.966;3.144;2022-12-28T02:08:19;6.53;;;4.67;;
17921;SDS011;9086;50.966;3.144;2022-12-28T02:10:47;5.40;;;4.90;;
17921;SDS011;9086;50.966;3.144;2022-12-28T02:13:14;8.83;;;5.27;;
17921;SDS011;9086;50.966;3.144;2022-12-28T02:15:41;5.60;;;4.33;;
17921;SDS011;9086;50.966;3.144;2022-12-28T02:18:07;5.07;;;4.57;;
17921;SDS011;9086;50.966;3.144;2022-12-28T02:26:28;4.70;;;4.30;;
17921;SDS011;9086;50.966;3.144;2022-12-28T02:31:02;5.60;;;4.87;;
17921;SDS011;9086;50.966;3.144;2022-12-28T02:33:35;8.73;;;5.67;;
17921;SDS011;9086;50.966;3.144;2022-12-28T02:36:06;6.50;;;5.90;;
17921;SDS011;9086;50.966;3.144;2022-12-28T02:38:38;5.57;;;4.93;;
17921;SDS011;9086;50.966;3.144;2022-12-28T02:41:05;5.17;;;4.77;;
17921;SDS011;9086;50.966;3.144;2022-12-28T02:43:33;7.60;;;4.90;;
17921;SDS011;9086;50.966;3.144;2022-12-28T02:46:15;5.50;;;4.97;;
17921;SDS011;9086;50.966;3.144;2022-12-28T02:49:07;6.50;;;5.80;;
17921;SDS011;9086;50.966;3.144;2022-12-28T02:52:06;5.67;;;4.67;;
17921;SDS011;9086;50.966;3.144;2022-12-28T03:00:21;4.67;;;4.27;;
17921;SDS011;9086;50.966;3.144;2022-12-28T03:08:19;6.07;;;5.53;;
17921;SDS011;9086;50.966;3.144;2022-12-28T03:10:48;6.50;;;5.00;;
17921;SDS011;9086;50.966;3.144;2022-12-28T03:13:31;5.93;;;5.40;;
17921;SDS011;9086;50.966;3.144;2022-12-28T03:16:27;6.97;;;5.63;;
17921;SDS011;9086;50.966;3.144;2022-12-28T03:19:02;5.87;;;4.60;;
17921;SDS011;9086;50.966;3.144;2022-12-28T03:21:48;6.37;;;5.43;;
17921;SDS011;9086;50.966;3.144;2022-12-28T03:24:34;5.90;;;5.40;;
17921;SDS011;9086;50.966;3.144;2022-12-28T03:27:20;5.37;;;4.87;;
17921;SDS011;9086;50.966;3.144;2022-12-28T03:30:13;6.27;;;5.70;;
17921;SDS011;9086;50.966;3.144;2022-12-28T03:32:58;5.57;;;4.37;;
17921;SDS011;9086;50.966;3.144;2022-12-28T03:35:37;6.97;;;5.60;;
17921;SDS011;9086;50.966;3.144;2022-12-28T03:38:07;5.70;;;5.10;;
17921;SDS011;9086;50.966;3.144;2022-12-28T03:40:38;5.73;;;5.33;;
17921;SDS011;9086;50.966;3.144;2022-12-28T03:43:09;8.33;;;5.47;;
17921;SDS011;9086;50.966;3.144;2022-12-28T03:46:03;5.07;;;4.77;;
17921;SDS011;9086;50.966;3.144;2022-12-28T03:48:31;6.17;;;4.90;;
17921;SDS011;9086;50.966;3.144;2022-12-28T03:50:58;7.37;;;6.77;;
17921;SDS011;9086;50.966;3.144;2022-12-28T03:53:26;6.43;;;6.00;;
17921;SDS011;9086;50.966;3.144;2022-12-28T03:56:03;6.23;;;4.90;;
17921;SDS011;9086;50.966;3.144;2022-12-28T03:58:30;6.00;;;4.80;;
17921;SDS011;9086;50.966;3.144;2022-12-28T04:00:55;6.03;;;4.60;;
17921;SDS011;9086;50.966;3.144;2022-12-28T04:03:21;4.93;;;4.37;;
17921;SDS011;9086;50.966;3.144;2022-12-28T04:05:47;5.00;;;4.60;;
17921;SDS011;9086;50.966;3.144;2022-12-28T04:08:13;5.63;;;5.10;;
17921;SDS011;9086;50.966;3.144;2022-12-28T04:10:39;4.30;;;4.10;;
17921;SDS011;9086;50.966;3.144;2022-12-28T04:13:05;5.23;;;4.73;;
17921;SDS011;9086;50.966;3.144;2022-12-28T04:15:31;5.30;;;4.47;;
17921;SDS011;9086;50.966;3.144;2022-12-28T04:17:59;4.90;;;4.60;;
17921;SDS011;9086;50.966;3.144;2022-12-28T04:20:25;6.30;;;4.77;;
17921;SDS011;9086;50.966;3.144;2022-12-28T04:22:51;5.50;;;5.20;;
17921;SDS011;9086;50.966;3.144;2022-12-28T04:25:17;5.47;;;5.10;;
17921;SDS011;9086;50.966;3.144;2022-12-28T04:27:43;5.30;;;4.90;;
17921;SDS011;9086;50.966;3.144;2022-12-28T04:30:09;6.80;;;6.33;;
17921;SDS011;9086;50.966;3.144;2022-12-28T04:32:35;7.60;;;7.00;;
17921;SDS011;9086;50.966;3.144;2022-12-28T04:35:01;7.30;;;6.77;;
17921;SDS011;9086;50.966;3.144;2022-12-28T04:37:27;7.83;;;7.20;;
17921;SDS011;9086;50.966;3.144;2022-12-28T04:39:53;8.13;;;7.70;;
17921;SDS011;9086;50.966;3.144;2022-12-28T04:42:19;8.33;;;7.50;;
17921;SDS011;9086;50.966;3.144;2022-12-28T04:44:45;8.53;;;8.13;;
17921;SDS011;9086;50.966;3.144;2022-12-28T04:47:11;7.93;;;7.43;;
17921;SDS011;9086;50.966;3.144;2022-12-28T04:49:37;8.93;;;8.33;;
17921;SDS011;9086;50.966;3.144;2022-12-28T04:52:03;9.60;;;9.10;;
17921;SDS011;9086;50.966;3.144;2022-12-28T04:54:29;9.40;;;8.80;;
17921;SDS011;9086;50.966;3.144;2022-12-28T04:56:55;9.97;;;9.27;;
17921;SDS011;9086;50.966;3.144;2022-12-28T04:59:21;11.00;;;10.47;;
17921;SDS011;9086;50.966;3.144;2022-12-28T05:01:47;10.57;;;9.70;;
17921;SDS011;9086;50.966;3.144;2022-12-28T05:04:13;12.80;;;12.10;;
17921;SDS011;9086;50.966;3.144;2022-12-28T05:06:39;10.33;;;9.73;;
17921;SDS011;9086;50.966;3.144;2022-12-28T05:09:05;9.63;;;9.13;;
17921;SDS011;9086;50.966;3.144;2022-12-28T05:11:31;9.33;;;8.60;;
17921;SDS011;9086;50.966;3.144;2022-12-28T05:13:57;11.20;;;10.60;;
17921;SDS011;9086;50.966;3.144;2022-12-28T05:16:24;11.90;;;11.40;;
17921;SDS011;9086;50.966;3.144;2022-12-28T05:18:51;13.03;;;12.13;;
17921;SDS011;9086;50.966;3.144;2022-12-28T05:23:43;13.83;;;13.10;;
17921;SDS011;9086;50.966;3.144;2022-12-28T05:26:14;15.17;;;14.27;;
17921;SDS011;9086;50.966;3.144;2022-12-28T05:28:40;14.63;;;14.03;;
17921;SDS011;9086;50.966;3.144;2022-12-28T05:31:08;15.20;;;14.50;;
17921;SDS011;9086;50.966;3.144;2022-12-28T05:33:35;14.93;;;14.03;;
17921;SDS011;9086;50.966;3.144;2022-12-28T05:36:02;15.40;;;14.60;;
17921;SDS011;9086;50.966;3.144;2022-12-28T05:38:28;15.40;;;14.80;;
17921;SDS011;9086;50.966;3.144;2022-12-28T05:40:55;15.13;;;14.33;;
17921;SDS011;9086;50.966;3.144;2022-12-28T05:43:21;13.73;;;13.03;;
17921;SDS011;9086;50.966;3.144;2022-12-28T05:45:47;15.67;;;14.97;;
17921;SDS011;9086;50.966;3.144;2022-12-28T05:48:13;15.73;;;14.83;;
17921;SDS011;9086;50.966;3.144;2022-12-28T05:50:39;16.40;;;15.47;;
17921;SDS011;9086;50.966;3.144;2022-12-28T05:53:05;16.37;;;15.47;;
17921;SDS011;9086;50.966;3.144;2022-12-28T05:55:31;14.30;;;13.70;;
17921;SDS011;9086;50.966;3.144;2022-12-28T05:57:57;13.93;;;13.20;;
17921;SDS011;9086;50.966;3.144;2022-12-28T06:00:23;15.23;;;14.53;;
17921;SDS011;9086;50.966;3.144;2022-12-28T06:02:49;15.97;;;15.03;;
17921;SDS011;9086;50.966;3.144;2022-12-28T06:05:15;16.60;;;15.80;;
17921;SDS011;9086;50.966;3.144;2022-12-28T06:07:41;15.47;;;14.67;;
17921;SDS011;9086;50.966;3.144;2022-12-28T06:10:07;14.10;;;13.27;;
17921;SDS011;9086;50.966;3.144;2022-12-28T06:12:33;16.20;;;15.10;;
17921;SDS011;9086;50.966;3.144;2022-12-28T06:14:59;12.20;;;11.57;;
17921;SDS011;9086;50.966;3.144;2022-12-28T06:17:25;11.27;;;10.67;;
17921;SDS011;9086;50.966;3.144;2022-12-28T06:19:51;16.83;;;15.90;;
17921;SDS011;9086;50.966;3.144;2022-12-28T06:22:17;11.77;;;11.27;;
17921;SDS011;9086;50.966;3.144;2022-12-28T06:24:45;11.87;;;11.30;;
17921;SDS011;9086;50.966;3.144;2022-12-28T06:27:11;12.37;;;11.57;;
17921;SDS011;9086;50.966;3.144;2022-12-28T06:29:37;11.47;;;10.67;;
17921;SDS011;9086;50.966;3.144;2022-12-28T06:32:03;13.97;;;13.10;;
17921;SDS011;9086;50.966;3.144;2022-12-28T06:34:29;10.43;;;9.67;;
17921;SDS011;9086;50.966;3.144;2022-12-28T06:36:55;10.80;;;10.23;;
17921;SDS011;9086;50.966;3.144;2022-12-28T06:39:22;10.97;;;10.27;;
17921;SDS011;9086;50.966;3.144;2022-12-28T06:41:48;11.30;;;10.63;;
17921;SDS011;9086;50.966;3.144;2022-12-28T06:44:14;11.67;;;10.97;;
17921;SDS011;9086;50.966;3.144;2022-12-28T06:46:40;11.63;;;10.93;;
17921;SDS011;9086;50.966;3.144;2022-12-28T06:49:06;11.97;;;10.83;;
17921;SDS011;9086;50.966;3.144;2022-12-28T06:51:33;10.17;;;9.57;;
17921;SDS011;9086;50.966;3.144;2022-12-28T06:54:04;10.80;;;9.90;;
17921;SDS011;9086;50.966;3.144;2022-12-28T06:56:32;9.93;;;9.23;;
17921;SDS011;9086;50.966;3.144;2022-12-28T06:58:58;8.40;;;8.00;;
17921;SDS011;9086;50.966;3.144;2022-12-28T07:01:25;9.10;;;8.50;;
17921;SDS011;9086;50.966;3.144;2022-12-28T07:03:53;9.33;;;8.73;;
17921;SDS011;9086;50.966;3.144;2022-12-28T07:06:21;8.40;;;7.63;;
17921;SDS011;9086;50.966;3.144;2022-12-28T07:08:47;8.37;;;7.63;;
17921;SDS011;9086;50.966;3.144;2022-12-28T07:11:15;6.63;;;6.33;;
17921;SDS011;9086;50.966;3.144;2022-12-28T07:13:41;7.70;;;6.33;;
17921;SDS011;9086;50.966;3.144;2022-12-28T07:16:12;7.43;;;5.57;;
17921;SDS011;9086;50.966;3.144;2022-12-28T07:18:38;6.90;;;6.23;;
17921;SDS011;9086;50.966;3.144;2022-12-28T07:21:05;5.23;;;4.80;;
17921;SDS011;9086;50.966;3.144;2022-12-28T07:23:32;6.83;;;4.33;;
17921;SDS011;9086;50.966;3.144;2022-12-28T07:26:03;6.73;;;4.90;;
17921;SDS011;9086;50.966;3.144;2022-12-28T07:28:29;4.90;;;4.33;;
17921;SDS011;9086;50.966;3.144;2022-12-28T07:30:55;4.43;;;4.07;;
17921;SDS011;9086;50.966;3.144;2022-12-28T07:33:21;5.37;;;4.00;;
17921;SDS011;9086;50.966;3.144;2022-12-28T07:35:47;4.40;;;3.67;;
17921;SDS011;9086;50.966;3.144;2022-12-28T07:38:13;5.10;;;3.67;;
17921;SDS011;9086;50.966;3.144;2022-12-28T07:40:39;8.83;;;3.77;;
17921;SDS011;9086;50.966;3.144;2022-12-28T07:43:05;5.93;;;3.50;;
17921;SDS011;9086;50.966;3.144;2022-12-28T07:45:31;10.17;;;3.30;;
17921;SDS011;9086;50.966;3.144;2022-12-28T07:47:57;4.20;;;3.10;;
17921;SDS011;9086;50.966;3.144;2022-12-28T07:50:23;5.40;;;3.67;;
17921;SDS011;9086;50.966;3.144;2022-12-28T07:52:50;9.20;;;3.30;;
17921;SDS011;9086;50.966;3.144;2022-12-28T07:55:16;5.17;;;3.23;;
17921;SDS011;9086;50.966;3.144;2022-12-28T07:57:42;6.27;;;2.47;;
17921;SDS011;9086;50.966;3.144;2022-12-28T08:00:08;8.10;;;3.03;;
17921;SDS011;9086;50.966;3.144;2022-12-28T08:02:34;5.67;;;3.33;;
17921;SDS011;9086;50.966;3.144;2022-12-28T08:05:00;3.40;;;2.63;;
17921;SDS011;9086;50.966;3.144;2022-12-28T08:07:26;4.27;;;2.70;;
17921;SDS011;9086;50.966;3.144;2022-12-28T08:09:52;4.93;;;2.77;;
17921;SDS011;9086;50.966;3.144;2022-12-28T08:12:18;5.43;;;3.07;;
17921;SDS011;9086;50.966;3.144;2022-12-28T08:14:45;6.90;;;3.13;;
17921;SDS011;9086;50.966;3.144;2022-12-28T08:17:11;4.80;;;3.17;;
17921;SDS011;9086;50.966;3.144;2022-12-28T08:19:37;5.00;;;3.50;;
17921;SDS011;9086;50.966;3.144;2022-12-28T08:22:03;6.37;;;3.87;;
17921;SDS011;9086;50.966;3.144;2022-12-28T08:24:29;7.07;;;3.53;;
17921;SDS011;9086;50.966;3.144;2022-12-28T08:26:55;7.70;;;4.67;;
17921;SDS011;9086;50.966;3.144;2022-12-28T08:29:21;6.90;;;4.33;;
17921;SDS011;9086;50.966;3.144;2022-12-28T08:31:47;9.40;;;4.60;;
17921;SDS011;9086;50.966;3.144;2022-12-28T08:34:18;6.43;;;4.40;;
17921;SDS011;9086;50.966;3.144;2022-12-28T08:36:46;6.83;;;4.60;;
17921;SDS011;9086;50.966;3.144;2022-12-28T08:39:12;5.73;;;5.13;;
17921;SDS011;9086;50.966;3.144;2022-12-28T08:41:38;7.73;;;5.50;;
17921;SDS011;9086;50.966;3.144;2022-12-28T08:44:04;5.97;;;5.20;;
17921;SDS011;9086;50.966;3.144;2022-12-28T08:46:31;5.90;;;5.23;;
17921;SDS011;9086;50.966;3.144;2022-12-28T08:48:58;7.20;;;6.60;;
17921;SDS011;9086;50.966;3.144;2022-12-28T08:51:25;6.60;;;6.00;;
17921;SDS011;9086;50.966;3.144;2022-12-28T08:53:52;6.77;;;6.17;;
17921;SDS011;9086;50.966;3.144;2022-12-28T08:56:22;7.27;;;6.63;;
17921;SDS011;9086;50.966;3.144;2022-12-28T08:58:48;7.93;;;7.23;;
17921;SDS011;9086;50.966;3.144;2022-12-28T09:01:31;7.33;;;6.70;;
17921;SDS011;9086;50.966;3.144;2022-12-28T09:03:58;9.73;;;8.97;;
17921;SDS011;9086;50.966;3.144;2022-12-28T09:06:29;10.50;;;8.73;;
17921;SDS011;9086;50.966;3.144;2022-12-28T09:08:56;11.23;;;10.20;;
17921;SDS011;9086;50.966;3.144;2022-12-28T09:11:22;10.07;;;9.37;;
17921;SDS011;9086;50.966;3.144;2022-12-28T09:13:48;11.20;;;10.00;;
17921;SDS011;9086;50.966;3.144;2022-12-28T09:16:15;11.33;;;10.63;;
17921;SDS011;9086;50.966;3.144;2022-12-28T09:18:42;10.73;;;9.80;;
17921;SDS011;9086;50.966;3.144;2022-12-28T09:21:18;11.73;;;11.03;;
17921;SDS011;9086;50.966;3.144;2022-12-28T09:23:45;11.23;;;10.27;;
17921;SDS011;9086;50.966;3.144;2022-12-28T09:26:15;11.90;;;11.07;;
17921;SDS011;9086;50.966;3.144;2022-12-28T09:28:46;11.07;;;10.20;;
17921;SDS011;9086;50.966;3.144;2022-12-28T09:31:12;11.23;;;10.10;;
17921;SDS011;9086;50.966;3.144;2022-12-28T09:33:38;12.53;;;11.73;;
17921;SDS011;9086;50.966;3.144;2022-12-28T09:36:23;11.50;;;10.70;;
17921;SDS011;9086;50.966;3.144;2022-12-28T09:38:49;10.90;;;10.00;;
17921;SDS011;9086;50.966;3.144;2022-12-28T09:49:09;16.53;;;15.43;;
17921;SDS011;9086;50.966;3.144;2022-12-28T09:51:37;13.50;;;12.67;;
17921;SDS011;9086;50.966;3.144;2022-12-28T09:54:06;12.37;;;11.63;;
17921;SDS011;9086;50.966;3.144;2022-12-28T09:56:33;11.23;;;10.47;;
17921;SDS011;9086;50.966;3.144;2022-12-28T09:59:01;12.93;;;12.13;;
17921;SDS011;9086;50.966;3.144;2022-12-28T10:01:28;14.63;;;13.60;;
17921;SDS011;9086;50.966;3.144;2022-12-28T10:03:54;15.03;;;14.13;;
17921;SDS011;9086;50.966;3.144;2022-12-28T10:06:23;13.70;;;12.60;;
17921;SDS011;9086;50.966;3.144;2022-12-28T10:08:50;14.63;;;13.83;;
17921;SDS011;9086;50.966;3.144;2022-12-28T10:11:18;13.27;;;12.37;;
17921;SDS011;9086;50.966;3.144;2022-12-28T10:13:45;13.90;;;13.07;;
17921;SDS011;9086;50.966;3.144;2022-12-28T10:16:17;15.30;;;14.40;;
17921;SDS011;9086;50.966;3.144;2022-12-28T10:18:45;14.63;;;13.67;;
17921;SDS011;9086;50.966;3.144;2022-12-28T10:21:12;14.10;;;13.10;;
17921;SDS011;9086;50.966;3.144;2022-12-28T10:23:39;13.97;;;13.27;;
17921;SDS011;9086;50.966;3.144;2022-12-28T10:26:08;14.07;;;13.10;;
17921;SDS011;9086;50.966;3.144;2022-12-28T10:28:43;12.47;;;11.50;;
17921;SDS011;9086;50.966;3.144;2022-12-28T10:31:10;14.67;;;13.47;;
17921;SDS011;9086;50.966;3.144;2022-12-28T10:33:40;12.67;;;11.67;;
17921;SDS011;9086;50.966;3.144;2022-12-28T10:36:10;11.70;;;10.47;;
17921;SDS011;9086;50.966;3.144;2022-12-28T10:38:37;12.17;;;10.97;;
17921;SDS011;9086;50.966;3.144;2022-12-28T10:41:10;10.67;;;9.83;;
17921;SDS011;9086;50.966;3.144;2022-12-28T10:43:38;14.07;;;12.03;;
17921;SDS011;9086;50.966;3.144;2022-12-28T10:46:14;8.43;;;7.63;;
17921;SDS011;9086;50.966;3.144;2022-12-28T10:48:43;10.57;;;7.87;;
17921;SDS011;9086;50.966;3.144;2022-12-28T10:51:12;8.93;;;8.07;;
17921;SDS011;9086;50.966;3.144;2022-12-28T10:58:35;7.63;;;6.90;;
17921;SDS011;9086;50.966;3.144;2022-12-28T11:01:14;7.13;;;6.43;;
17921;SDS011;9086;50.966;3.144;2022-12-28T11:03:42;7.03;;;6.40;;
17921;SDS011;9086;50.966;3.144;2022-12-28T11:06:12;6.83;;;5.70;;
17921;SDS011;9086;50.966;3.144;2022-12-28T11:08:39;8.17;;;5.50;;
17921;SDS011;9086;50.966;3.144;2022-12-28T11:11:06;7.67;;;4.70;;
17921;SDS011;9086;50.966;3.144;2022-12-28T11:13:32;7.30;;;4.67;;
17921;SDS011;9086;50.966;3.144;2022-12-28T11:15:58;7.30;;;4.93;;
17921;SDS011;9086;50.966;3.144;2022-12-28T11:18:25;8.13;;;4.13;;
17921;SDS011;9086;50.966;3.144;2022-12-28T11:20:51;8.57;;;3.83;;
17921;SDS011;9086;50.966;3.144;2022-12-28T11:23:19;6.57;;;3.00;;
17921;SDS011;9086;50.966;3.144;2022-12-28T11:25:46;6.23;;;2.93;;
17921;SDS011;9086;50.966;3.144;2022-12-28T11:28:17;4.97;;;2.63;;
17921;SDS011;9086;50.966;3.144;2022-12-28T11:30:44;3.30;;;2.50;;
17921;SDS011;9086;50.966;3.144;2022-12-28T11:36:27;7.20;;;3.33;;
17921;SDS011;9086;50.966;3.144;2022-12-28T11:38:53;5.87;;;2.90;;
17921;SDS011;9086;50.966;3.144;2022-12-28T11:43:50;6.77;;;2.80;;
17921;SDS011;9086;50.966;3.144;2022-12-28T11:51:19;6.13;;;2.40;;
17921;SDS011;9086;50.966;3.144;2022-12-28T11:56:15;4.57;;;2.60;;
17921;SDS011;9086;50.966;3.144;2022-12-28T11:58:46;5.13;;;2.20;;
17921;SDS011;9086;50.966;3.144;2022-12-28T12:11:46;4.60;;;2.00;;
17921;SDS011;9086;50.966;3.144;2022-12-28T12:14:12;4.33;;;1.70;;
17921;SDS011;9086;50.966;3.144;2022-12-28T12:16:47;4.43;;;1.80;;
17921;SDS011;9086;50.966;3.144;2022-12-28T12:19:35;4.23;;;2.17;;
17921;SDS011;9086;50.966;3.144;2022-12-28T12:22:22;4.23;;;1.90;;
17921;SDS011;9086;50.966;3.144;2022-12-28T12:29:50;5.53;;;1.97;;
17921;SDS011;9086;50.966;3.144;2022-12-28T12:32:24;4.33;;;1.70;;
17921;SDS011;9086;50.966;3.144;2022-12-28T12:34:55;4.40;;;1.40;;
17921;SDS011;9086;50.966;3.144;2022-12-28T12:37:43;6.90;;;1.53;;
17921;SDS011;9086;50.966;3.144;2022-12-28T12:43:08;7.40;;;2.03;;
17921;SDS011;9086;50.966;3.144;2022-12-28T12:53:36;6.13;;;1.80;;
17921;SDS011;9086;50.966;3.144;2022-12-28T13:04:06;6.03;;;1.87;;
17921;SDS011;9086;50.966;3.144;2022-12-28T13:06:33;5.93;;;1.50;;
17921;SDS011;9086;50.966;3.144;2022-12-28T13:09:00;4.23;;;1.70;;
17921;SDS011;9086;50.966;3.144;2022-12-28T13:11:27;4.90;;;1.73;;
17921;SDS011;9086;50.966;3.144;2022-12-28T13:13:53;5.97;;;1.73;;
17921;SDS011;9086;50.966;3.144;2022-12-28T13:16:23;4.90;;;1.57;;
17921;SDS011;9086;50.966;3.144;2022-12-28T13:18:57;4.87;;;1.97;;
17921;SDS011;9086;50.966;3.144;2022-12-28T13:21:25;4.90;;;1.77;;
17921;SDS011;9086;50.966;3.144;2022-12-28T13:23:52;4.17;;;1.53;;
17921;SDS011;9086;50.966;3.144;2022-12-28T13:26:19;6.63;;;1.97;;
17921;SDS011;9086;50.966;3.144;2022-12-28T13:29:00;6.07;;;1.83;;
17921;SDS011;9086;50.966;3.144;2022-12-28T13:31:31;5.97;;;1.97;;
17921;SDS011;9086;50.966;3.144;2022-12-28T13:34:03;7.47;;;1.87;;
17921;SDS011;9086;50.966;3.144;2022-12-28T13:36:29;6.83;;;1.50;;
17921;SDS011;9086;50.966;3.144;2022-12-28T13:39:00;5.43;;;1.70;;
17921;SDS011;9086;50.966;3.144;2022-12-28T13:41:26;1.93;;;0.93;;
17921;SDS011;9086;50.966;3.144;2022-12-28T13:46:32;6.93;;;2.30;;
17921;SDS011;9086;50.966;3.144;2022-12-28T13:48:58;6.50;;;1.97;;
17921;SDS011;9086;50.966;3.144;2022-12-28T13:51:25;4.50;;;1.90;;
17921;SDS011;9086;50.966;3.144;2022-12-28T13:53:53;5.70;;;1.93;;
17921;SDS011;9086;50.966;3.144;2022-12-28T13:56:20;5.43;;;2.20;;
17921;SDS011;9086;50.966;3.144;2022-12-28T13:58:47;3.90;;;1.53;;
17921;SDS011;9086;50.966;3.144;2022-12-28T14:01:18;4.67;;;1.80;;
17921;SDS011;9086;50.966;3.144;2022-12-28T14:03:46;6.77;;;2.13;;
17921;SDS011;9086;50.966;3.144;2022-12-28T14:06:12;3.37;;;1.77;;
17921;SDS011;9086;50.966;3.144;2022-12-28T14:08:40;3.47;;;1.87;;
17921;SDS011;9086;50.966;3.144;2022-12-28T14:11:06;2.60;;;1.60;;
17921;SDS011;9086;50.966;3.144;2022-12-28T14:13:32;7.93;;;2.50;;
17921;SDS011;9086;50.966;3.144;2022-12-28T14:15:59;4.60;;;1.70;;
17921;SDS011;9086;50.966;3.144;2022-12-28T14:18:26;4.20;;;1.70;;
17921;SDS011;9086;50.966;3.144;2022-12-28T14:20:54;4.53;;;1.80;;
17921;SDS011;9086;50.966;3.144;2022-12-28T14:23:25;2.80;;;1.87;;
17921;SDS011;9086;50.966;3.144;2022-12-28T14:25:51;4.20;;;1.80;;
17921;SDS011;9086;50.966;3.144;2022-12-28T14:28:21;6.70;;;2.13;;
17921;SDS011;9086;50.966;3.144;2022-12-28T14:30:53;3.23;;;1.93;;
17921;SDS011;9086;50.966;3.144;2022-12-28T14:33:20;5.43;;;2.27;;
17921;SDS011;9086;50.966;3.144;2022-12-28T14:35:48;2.33;;;1.77;;
17921;SDS011;9086;50.966;3.144;2022-12-28T14:38:18;4.80;;;1.70;;
17921;SDS011;9086;50.966;3.144;2022-12-28T14:40:51;3.57;;;1.70;;
17921;SDS011;9086;50.966;3.144;2022-12-28T14:43:18;2.30;;;1.60;;
17921;SDS011;9086;50.966;3.144;2022-12-28T14:45:47;4.63;;;2.33;;
17921;SDS011;9086;50.966;3.144;2022-12-28T14:48:20;4.13;;;2.17;;
17921;SDS011;9086;50.966;3.144;2022-12-28T14:53:24;4.00;;;2.00;;
17921;SDS011;9086;50.966;3.144;2022-12-28T14:58:18;4.33;;;2.67;;
17921;SDS011;9086;50.966;3.144;2022-12-28T15:00:53;3.70;;;2.20;;
17921;SDS011;9086;50.966;3.144;2022-12-28T15:03:20;5.70;;;2.60;;
17921;SDS011;9086;50.966;3.144;2022-12-28T15:05:48;4.73;;;2.57;;
17921;SDS011;9086;50.966;3.144;2022-12-28T15:08:14;5.07;;;2.60;;
17921;SDS011;9086;50.966;3.144;2022-12-28T15:10:50;6.90;;;2.80;;
17921;SDS011;9086;50.966;3.144;2022-12-28T15:13:17;4.23;;;2.67;;
17921;SDS011;9086;50.966;3.144;2022-12-28T15:15:43;5.00;;;2.63;;
17921;SDS011;9086;50.966;3.144;2022-12-28T15:18:10;4.90;;;2.73;;
17921;SDS011;9086;50.966;3.144;2022-12-28T15:20:36;6.13;;;2.70;;
17921;SDS011;9086;50.966;3.144;2022-12-28T15:23:03;3.73;;;2.80;;
17921;SDS011;9086;50.966;3.144;2022-12-28T15:25:31;4.50;;;2.97;;
17921;SDS011;9086;50.966;3.144;2022-12-28T15:27:57;6.50;;;4.63;;
17921;SDS011;9086;50.966;3.144;2022-12-28T15:30:23;5.63;;;3.30;;
17921;SDS011;9086;50.966;3.144;2022-12-28T15:32:49;5.90;;;3.50;;
17921;SDS011;9086;50.966;3.144;2022-12-28T15:35:15;16.37;;;11.33;;
17921;SDS011;9086;50.966;3.144;2022-12-28T15:37:41;18.43;;;12.50;;
17921;SDS011;9086;50.966;3.144;2022-12-28T15:40:08;8.07;;;5.63;;
17921;SDS011;9086;50.966;3.144;2022-12-28T15:42:34;5.07;;;4.60;;
17921;SDS011;9086;50.966;3.144;2022-12-28T15:45:00;5.10;;;4.13;;
17921;SDS011;9086;50.966;3.144;2022-12-28T15:47:26;4.30;;;3.93;;
17921;SDS011;9086;50.966;3.144;2022-12-28T15:49:52;4.47;;;3.77;;
17921;SDS011;9086;50.966;3.144;2022-12-28T15:52:18;4.73;;;4.33;;
17921;SDS011;9086;50.966;3.144;2022-12-28T15:54:44;4.23;;;3.67;;
17921;SDS011;9086;50.966;3.144;2022-12-28T15:57:10;7.50;;;3.90;;
17921;SDS011;9086;50.966;3.144;2022-12-28T15:59:38;9.47;;;4.00;;
17921;SDS011;9086;50.966;3.144;2022-12-28T16:02:04;4.33;;;3.63;;
17921;SDS011;9086;50.966;3.144;2022-12-28T16:04:30;9.47;;;5.67;;
17921;SDS011;9086;50.966;3.144;2022-12-28T16:06:56;12.93;;;10.10;;
17921;SDS011;9086;50.966;3.144;2022-12-28T16:09:22;7.63;;;6.03;;
17921;SDS011;9086;50.966;3.144;2022-12-28T16:11:48;8.77;;;7.73;;
17921;SDS011;9086;50.966;3.144;2022-12-28T16:14:14;4.73;;;4.33;;
17921;SDS011;9086;50.966;3.144;2022-12-28T16:16:41;6.93;;;5.83;;
17921;SDS011;9086;50.966;3.144;2022-12-28T16:19:07;4.87;;;4.57;;
17921;SDS011;9086;50.966;3.144;2022-12-28T16:21:34;6.00;;;5.47;;
17921;SDS011;9086;50.966;3.144;2022-12-28T16:24:00;5.73;;;5.20;;
17921;SDS011;9086;50.966;3.144;2022-12-28T16:26:26;5.80;;;5.23;;
17921;SDS011;9086;50.966;3.144;2022-12-28T16:28:53;6.07;;;5.50;;
17921;SDS011;9086;50.966;3.144;2022-12-28T16:33:46;6.90;;;6.50;;
17921;SDS011;9086;50.966;3.144;2022-12-28T16:36:12;6.40;;;5.90;;
17921;SDS011;9086;50.966;3.144;2022-12-28T16:38:40;8.17;;;6.80;;
17921;SDS011;9086;50.966;3.144;2022-12-28T16:41:06;7.13;;;6.17;;